sensor_id;sensor_type;location;lat;lon;timestamp;P1;durP1;ratioP1;P2;durP2;ratioP2
16822;SDS011;8528;49.976;11.858;2023-05-10T00:00:42;4.27;;;3.77;;
16822;SDS011;8528;49.976;11.858;2023-05-10T00:03:09;4.20;;;3.33;;
16822;SDS011;8528;49.976;11.858;2023-05-10T00:05:36;3.60;;;3.30;;
16822;SDS011;8528;49.976;11.858;2023-05-10T00:08:03;4.73;;;3.50;;
16822;SDS011;8528;49.976;11.858;2023-05-10T00:10:31;4.70;;;4.20;;
16822;SDS011;8528;49.976;11.858;2023-05-10T00:12:58;3.50;;;3.20;;
16822;SDS011;8528;49.976;11.858;2023-05-10T00:15:25;3.83;;;3.43;;
16822;SDS011;8528;49.976;11.858;2023-05-10T00:17:52;4.57;;;3.60;;
16822;SDS011;8528;49.976;11.858;2023-05-10T00:20:19;4.00;;;3.60;;
16822;SDS011;8528;49.976;11.858;2023-05-10T00:22:46;4.70;;;3.67;;
16822;SDS011;8528;49.976;11.858;2023-05-10T00:25:13;3.87;;;3.30;;
16822;SDS011;8528;49.976;11.858;2023-05-10T00:27:41;3.80;;;3.50;;
16822;SDS011;8528;49.976;11.858;2023-05-10T00:30:08;3.70;;;3.40;;
16822;SDS011;8528;49.976;11.858;2023-05-10T00:32:35;4.20;;;3.30;;
16822;SDS011;8528;49.976;11.858;2023-05-10T00:35:03;3.97;;;3.57;;
16822;SDS011;8528;49.976;11.858;2023-05-10T00:37:30;4.93;;;3.87;;
16822;SDS011;8528;49.976;11.858;2023-05-10T00:39:57;4.73;;;3.70;;
16822;SDS011;8528;49.976;11.858;2023-05-10T00:42:24;3.83;;;3.40;;
16822;SDS011;8528;49.976;11.858;2023-05-10T00:44:51;4.60;;;4.10;;
16822;SDS011;8528;49.976;11.858;2023-05-10T00:47:18;4.27;;;3.60;;
16822;SDS011;8528;49.976;11.858;2023-05-10T00:49:45;3.87;;;3.27;;
16822;SDS011;8528;49.976;11.858;2023-05-10T00:52:12;4.73;;;3.50;;
16822;SDS011;8528;49.976;11.858;2023-05-10T00:54:39;4.60;;;3.60;;
16822;SDS011;8528;49.976;11.858;2023-05-10T00:57:07;4.23;;;3.43;;
16822;SDS011;8528;49.976;11.858;2023-05-10T00:59:33;3.53;;;3.23;;
16822;SDS011;8528;49.976;11.858;2023-05-10T01:02:01;4.97;;;3.30;;
16822;SDS011;8528;49.976;11.858;2023-05-10T01:04:28;5.63;;;3.40;;
16822;SDS011;8528;49.976;11.858;2023-05-10T01:06:55;4.80;;;3.30;;
16822;SDS011;8528;49.976;11.858;2023-05-10T01:09:22;5.47;;;3.93;;
16822;SDS011;8528;49.976;11.858;2023-05-10T01:11:49;3.60;;;3.27;;
16822;SDS011;8528;49.976;11.858;2023-05-10T01:14:17;3.47;;;3.13;;
16822;SDS011;8528;49.976;11.858;2023-05-10T01:16:46;4.00;;;3.60;;
16822;SDS011;8528;49.976;11.858;2023-05-10T01:22:02;3.97;;;3.53;;
16822;SDS011;8528;49.976;11.858;2023-05-10T01:32:52;3.83;;;3.40;;
16822;SDS011;8528;49.976;11.858;2023-05-10T01:35:31;3.97;;;3.57;;
16822;SDS011;8528;49.976;11.858;2023-05-10T01:38:16;5.33;;;3.87;;
16822;SDS011;8528;49.976;11.858;2023-05-10T01:43:34;4.07;;;3.40;;
16822;SDS011;8528;49.976;11.858;2023-05-10T01:46:09;4.50;;;3.80;;
16822;SDS011;8528;49.976;11.858;2023-05-10T01:48:41;4.23;;;3.80;;
16822;SDS011;8528;49.976;11.858;2023-05-10T01:51:19;4.10;;;3.60;;
16822;SDS011;8528;49.976;11.858;2023-05-10T01:53:51;3.50;;;3.20;;
16822;SDS011;8528;49.976;11.858;2023-05-10T01:56:25;4.13;;;3.73;;
16822;SDS011;8528;49.976;11.858;2023-05-10T01:58:54;4.40;;;4.00;;
16822;SDS011;8528;49.976;11.858;2023-05-10T02:01:22;4.60;;;3.80;;
16822;SDS011;8528;49.976;11.858;2023-05-10T02:03:52;4.63;;;3.60;;
16822;SDS011;8528;49.976;11.858;2023-05-10T02:06:21;5.43;;;3.70;;
16822;SDS011;8528;49.976;11.858;2023-05-10T02:08:50;3.70;;;3.30;;
16822;SDS011;8528;49.976;11.858;2023-05-10T02:11:18;3.50;;;3.20;;
16822;SDS011;8528;49.976;11.858;2023-05-10T02:13:48;4.93;;;3.73;;
16822;SDS011;8528;49.976;11.858;2023-05-10T02:16:16;4.63;;;3.40;;
16822;SDS011;8528;49.976;11.858;2023-05-10T02:18:44;4.07;;;3.67;;
16822;SDS011;8528;49.976;11.858;2023-05-10T02:21:13;4.93;;;3.40;;
16822;SDS011;8528;49.976;11.858;2023-05-10T02:23:43;3.60;;;3.30;;
16822;SDS011;8528;49.976;11.858;2023-05-10T02:26:11;6.40;;;3.60;;
16822;SDS011;8528;49.976;11.858;2023-05-10T02:28:40;3.70;;;3.40;;
16822;SDS011;8528;49.976;11.858;2023-05-10T02:31:08;5.00;;;3.63;;
16822;SDS011;8528;49.976;11.858;2023-05-10T02:33:37;5.00;;;3.63;;
16822;SDS011;8528;49.976;11.858;2023-05-10T02:36:07;5.30;;;3.90;;
16822;SDS011;8528;49.976;11.858;2023-05-10T02:38:36;3.90;;;3.50;;
16822;SDS011;8528;49.976;11.858;2023-05-10T02:41:03;5.37;;;3.70;;
16822;SDS011;8528;49.976;11.858;2023-05-10T02:43:32;3.93;;;3.63;;
16822;SDS011;8528;49.976;11.858;2023-05-10T02:45:59;4.03;;;3.50;;
16822;SDS011;8528;49.976;11.858;2023-05-10T02:48:27;4.23;;;3.63;;
16822;SDS011;8528;49.976;11.858;2023-05-10T02:50:56;4.27;;;3.53;;
16822;SDS011;8528;49.976;11.858;2023-05-10T02:53:30;4.93;;;3.67;;
16822;SDS011;8528;49.976;11.858;2023-05-10T02:56:00;3.67;;;3.37;;
16822;SDS011;8528;49.976;11.858;2023-05-10T02:58:33;4.27;;;3.60;;
16822;SDS011;8528;49.976;11.858;2023-05-10T03:01:00;5.27;;;3.23;;
16822;SDS011;8528;49.976;11.858;2023-05-10T03:03:27;4.03;;;3.63;;
16822;SDS011;8528;49.976;11.858;2023-05-10T03:05:55;4.40;;;4.00;;
16822;SDS011;8528;49.976;11.858;2023-05-10T03:08:22;5.17;;;3.87;;
16822;SDS011;8528;49.976;11.858;2023-05-10T03:10:54;5.13;;;3.87;;
16822;SDS011;8528;49.976;11.858;2023-05-10T03:13:34;4.37;;;3.97;;
16822;SDS011;8528;49.976;11.858;2023-05-10T03:16:16;5.37;;;3.63;;
16822;SDS011;8528;49.976;11.858;2023-05-10T03:18:54;4.73;;;3.97;;
16822;SDS011;8528;49.976;11.858;2023-05-10T03:21:22;3.53;;;3.23;;
16822;SDS011;8528;49.976;11.858;2023-05-10T03:23:58;3.60;;;3.30;;
16822;SDS011;8528;49.976;11.858;2023-05-10T03:26:33;4.20;;;3.80;;
16822;SDS011;8528;49.976;11.858;2023-05-10T03:29:03;4.63;;;3.80;;
16822;SDS011;8528;49.976;11.858;2023-05-10T03:31:32;7.50;;;4.10;;
16822;SDS011;8528;49.976;11.858;2023-05-10T03:33:59;3.93;;;3.53;;
16822;SDS011;8528;49.976;11.858;2023-05-10T03:36:26;4.33;;;3.83;;
16822;SDS011;8528;49.976;11.858;2023-05-10T03:38:53;5.23;;;4.60;;
16822;SDS011;8528;49.976;11.858;2023-05-10T03:41:21;7.67;;;5.97;;
16822;SDS011;8528;49.976;11.858;2023-05-10T03:43:48;4.80;;;3.90;;
16822;SDS011;8528;49.976;11.858;2023-05-10T03:46:14;4.27;;;3.83;;
16822;SDS011;8528;49.976;11.858;2023-05-10T03:48:41;4.40;;;4.00;;
16822;SDS011;8528;49.976;11.858;2023-05-10T03:51:08;4.07;;;3.70;;
16822;SDS011;8528;49.976;11.858;2023-05-10T03:53:35;4.33;;;3.93;;
16822;SDS011;8528;49.976;11.858;2023-05-10T03:56:02;4.43;;;4.03;;
16822;SDS011;8528;49.976;11.858;2023-05-10T03:58:29;5.33;;;3.93;;
16822;SDS011;8528;49.976;11.858;2023-05-10T04:00:55;4.17;;;3.57;;
16822;SDS011;8528;49.976;11.858;2023-05-10T04:03:22;4.43;;;4.03;;
16822;SDS011;8528;49.976;11.858;2023-05-10T04:05:57;9.50;;;3.83;;
16822;SDS011;8528;49.976;11.858;2023-05-10T04:08:25;4.47;;;4.00;;
16822;SDS011;8528;49.976;11.858;2023-05-10T04:10:52;6.00;;;4.30;;
16822;SDS011;8528;49.976;11.858;2023-05-10T04:13:19;5.13;;;4.37;;
16822;SDS011;8528;49.976;11.858;2023-05-10T04:15:46;5.03;;;4.10;;
16822;SDS011;8528;49.976;11.858;2023-05-10T04:18:13;5.93;;;4.10;;
16822;SDS011;8528;49.976;11.858;2023-05-10T04:20:40;4.90;;;4.37;;
16822;SDS011;8528;49.976;11.858;2023-05-10T04:23:06;4.30;;;3.90;;
16822;SDS011;8528;49.976;11.858;2023-05-10T04:25:34;5.20;;;4.40;;
16822;SDS011;8528;49.976;11.858;2023-05-10T04:28:01;5.87;;;4.20;;
16822;SDS011;8528;49.976;11.858;2023-05-10T04:30:28;4.73;;;4.23;;
16822;SDS011;8528;49.976;11.858;2023-05-10T04:32:55;4.43;;;4.00;;
16822;SDS011;8528;49.976;11.858;2023-05-10T04:35:22;4.40;;;4.00;;
16822;SDS011;8528;49.976;11.858;2023-05-10T04:37:49;5.33;;;3.80;;
16822;SDS011;8528;49.976;11.858;2023-05-10T04:40:16;6.23;;;4.33;;
16822;SDS011;8528;49.976;11.858;2023-05-10T04:42:43;4.93;;;4.40;;
16822;SDS011;8528;49.976;11.858;2023-05-10T04:45:10;4.90;;;4.13;;
16822;SDS011;8528;49.976;11.858;2023-05-10T04:47:37;4.57;;;3.97;;
16822;SDS011;8528;49.976;11.858;2023-05-10T04:50:04;4.87;;;4.37;;
16822;SDS011;8528;49.976;11.858;2023-05-10T04:52:31;7.33;;;4.17;;
16822;SDS011;8528;49.976;11.858;2023-05-10T04:54:58;4.40;;;4.00;;
16822;SDS011;8528;49.976;11.858;2023-05-10T04:57:25;5.80;;;4.53;;
16822;SDS011;8528;49.976;11.858;2023-05-10T04:59:52;4.43;;;4.07;;
16822;SDS011;8528;49.976;11.858;2023-05-10T05:02:19;6.50;;;3.97;;
16822;SDS011;8528;49.976;11.858;2023-05-10T05:04:46;5.43;;;4.40;;
16822;SDS011;8528;49.976;11.858;2023-05-10T05:07:13;6.10;;;4.53;;
16822;SDS011;8528;49.976;11.858;2023-05-10T05:09:40;5.27;;;4.43;;
16822;SDS011;8528;49.976;11.858;2023-05-10T05:12:07;5.63;;;4.70;;
16822;SDS011;8528;49.976;11.858;2023-05-10T05:14:33;5.53;;;5.00;;
16822;SDS011;8528;49.976;11.858;2023-05-10T05:17:00;5.50;;;4.40;;
16822;SDS011;8528;49.976;11.858;2023-05-10T05:19:27;4.77;;;4.37;;
16822;SDS011;8528;49.976;11.858;2023-05-10T05:21:54;5.47;;;4.83;;
16822;SDS011;8528;49.976;11.858;2023-05-10T05:24:21;6.23;;;5.50;;
16822;SDS011;8528;49.976;11.858;2023-05-10T05:26:48;7.03;;;4.87;;
16822;SDS011;8528;49.976;11.858;2023-05-10T05:29:15;5.80;;;5.20;;
16822;SDS011;8528;49.976;11.858;2023-05-10T05:31:41;6.13;;;4.67;;
16822;SDS011;8528;49.976;11.858;2023-05-10T05:34:09;6.23;;;4.80;;
16822;SDS011;8528;49.976;11.858;2023-05-10T05:36:36;5.70;;;5.13;;
16822;SDS011;8528;49.976;11.858;2023-05-10T05:39:04;8.63;;;5.13;;
16822;SDS011;8528;49.976;11.858;2023-05-10T05:41:31;7.13;;;5.23;;
16822;SDS011;8528;49.976;11.858;2023-05-10T05:43:58;7.47;;;4.80;;
16822;SDS011;8528;49.976;11.858;2023-05-10T05:46:25;5.63;;;5.13;;
16822;SDS011;8528;49.976;11.858;2023-05-10T05:48:52;5.80;;;5.20;;
16822;SDS011;8528;49.976;11.858;2023-05-10T05:51:19;6.23;;;5.57;;
16822;SDS011;8528;49.976;11.858;2023-05-10T05:53:46;6.37;;;5.77;;
16822;SDS011;8528;49.976;11.858;2023-05-10T05:56:13;7.53;;;5.40;;
16822;SDS011;8528;49.976;11.858;2023-05-10T05:58:39;6.63;;;5.77;;
16822;SDS011;8528;49.976;11.858;2023-05-10T06:01:07;5.60;;;5.00;;
16822;SDS011;8528;49.976;11.858;2023-05-10T06:03:33;6.77;;;6.00;;
16822;SDS011;8528;49.976;11.858;2023-05-10T06:06:00;5.77;;;5.27;;
16822;SDS011;8528;49.976;11.858;2023-05-10T06:08:27;6.20;;;5.60;;
16822;SDS011;8528;49.976;11.858;2023-05-10T06:10:54;6.40;;;5.23;;
16822;SDS011;8528;49.976;11.858;2023-05-10T06:13:21;6.50;;;5.30;;
16822;SDS011;8528;49.976;11.858;2023-05-10T06:15:48;6.93;;;5.63;;
16822;SDS011;8528;49.976;11.858;2023-05-10T06:18:15;7.60;;;5.80;;
16822;SDS011;8528;49.976;11.858;2023-05-10T06:20:41;8.07;;;6.20;;
16822;SDS011;8528;49.976;11.858;2023-05-10T06:23:09;6.93;;;6.00;;
16822;SDS011;8528;49.976;11.858;2023-05-10T06:25:35;8.80;;;5.83;;
16822;SDS011;8528;49.976;11.858;2023-05-10T06:28:03;6.80;;;6.10;;
16822;SDS011;8528;49.976;11.858;2023-05-10T06:30:29;8.33;;;7.27;;
16822;SDS011;8528;49.976;11.858;2023-05-10T06:32:56;7.93;;;6.33;;
16822;SDS011;8528;49.976;11.858;2023-05-10T06:35:23;7.70;;;6.87;;
16822;SDS011;8528;49.976;11.858;2023-05-10T06:37:50;7.10;;;6.40;;
16822;SDS011;8528;49.976;11.858;2023-05-10T06:40:17;8.43;;;7.20;;
16822;SDS011;8528;49.976;11.858;2023-05-10T06:42:45;11.53;;;7.70;;
16822;SDS011;8528;49.976;11.858;2023-05-10T06:45:12;7.93;;;6.43;;
16822;SDS011;8528;49.976;11.858;2023-05-10T06:47:41;8.20;;;6.90;;
16822;SDS011;8528;49.976;11.858;2023-05-10T06:50:08;8.33;;;6.97;;
16822;SDS011;8528;49.976;11.858;2023-05-10T06:52:37;7.97;;;7.17;;
16822;SDS011;8528;49.976;11.858;2023-05-10T06:55:04;7.53;;;6.80;;
16822;SDS011;8528;49.976;11.858;2023-05-10T06:57:31;8.23;;;7.43;;
16822;SDS011;8528;49.976;11.858;2023-05-10T06:59:59;7.87;;;7.03;;
16822;SDS011;8528;49.976;11.858;2023-05-10T07:02:26;8.20;;;7.40;;
16822;SDS011;8528;49.976;11.858;2023-05-10T07:04:53;10.63;;;7.87;;
16822;SDS011;8528;49.976;11.858;2023-05-10T07:07:20;9.33;;;7.97;;
16822;SDS011;8528;49.976;11.858;2023-05-10T07:09:47;8.50;;;7.60;;
16822;SDS011;8528;49.976;11.858;2023-05-10T07:12:15;7.57;;;6.87;;
16822;SDS011;8528;49.976;11.858;2023-05-10T07:14:43;8.77;;;7.87;;
16822;SDS011;8528;49.976;11.858;2023-05-10T07:17:10;7.83;;;7.07;;
16822;SDS011;8528;49.976;11.858;2023-05-10T07:19:37;8.40;;;7.23;;
16822;SDS011;8528;49.976;11.858;2023-05-10T07:22:04;8.73;;;7.83;;
16822;SDS011;8528;49.976;11.858;2023-05-10T07:24:32;8.80;;;7.90;;
16822;SDS011;8528;49.976;11.858;2023-05-10T07:26:59;12.00;;;8.60;;
16822;SDS011;8528;49.976;11.858;2023-05-10T07:29:26;9.93;;;8.93;;
16822;SDS011;8528;49.976;11.858;2023-05-10T07:31:54;8.63;;;7.83;;
16822;SDS011;8528;49.976;11.858;2023-05-10T07:34:24;9.07;;;8.00;;
16822;SDS011;8528;49.976;11.858;2023-05-10T07:36:51;9.97;;;8.13;;
16822;SDS011;8528;49.976;11.858;2023-05-10T07:39:18;9.17;;;8.17;;
16822;SDS011;8528;49.976;11.858;2023-05-10T07:41:53;9.43;;;7.80;;
16822;SDS011;8528;49.976;11.858;2023-05-10T07:44:23;9.40;;;7.80;;
16822;SDS011;8528;49.976;11.858;2023-05-10T07:46:50;8.00;;;7.27;;
16822;SDS011;8528;49.976;11.858;2023-05-10T07:49:17;8.53;;;7.63;;
16822;SDS011;8528;49.976;11.858;2023-05-10T07:51:44;8.73;;;7.83;;
16822;SDS011;8528;49.976;11.858;2023-05-10T07:54:10;9.53;;;8.33;;
16822;SDS011;8528;49.976;11.858;2023-05-10T07:56:38;8.83;;;7.87;;
16822;SDS011;8528;49.976;11.858;2023-05-10T07:59:08;9.83;;;8.83;;
16822;SDS011;8528;49.976;11.858;2023-05-10T08:01:37;10.43;;;8.70;;
16822;SDS011;8528;49.976;11.858;2023-05-10T08:04:04;11.53;;;7.80;;
16822;SDS011;8528;49.976;11.858;2023-05-10T08:06:32;8.07;;;7.27;;
16822;SDS011;8528;49.976;11.858;2023-05-10T08:08:58;8.40;;;7.40;;
16822;SDS011;8528;49.976;11.858;2023-05-10T08:11:26;8.10;;;7.30;;
16822;SDS011;8528;49.976;11.858;2023-05-10T08:13:54;7.20;;;6.60;;
16822;SDS011;8528;49.976;11.858;2023-05-10T08:16:21;8.30;;;7.43;;
16822;SDS011;8528;49.976;11.858;2023-05-10T08:18:48;9.20;;;7.70;;
16822;SDS011;8528;49.976;11.858;2023-05-10T08:21:16;8.10;;;7.30;;
16822;SDS011;8528;49.976;11.858;2023-05-10T08:23:43;8.07;;;7.27;;
16822;SDS011;8528;49.976;11.858;2023-05-10T08:26:10;7.53;;;6.77;;
16822;SDS011;8528;49.976;11.858;2023-05-10T08:28:37;7.63;;;6.87;;
16822;SDS011;8528;49.976;11.858;2023-05-10T08:31:06;9.23;;;7.17;;
16822;SDS011;8528;49.976;11.858;2023-05-10T08:33:32;7.80;;;7.07;;
16822;SDS011;8528;49.976;11.858;2023-05-10T08:35:59;10.20;;;6.30;;
16822;SDS011;8528;49.976;11.858;2023-05-10T08:38:26;6.43;;;5.83;;
16822;SDS011;8528;49.976;11.858;2023-05-10T08:40:54;6.87;;;6.07;;
16822;SDS011;8528;49.976;11.858;2023-05-10T08:43:23;7.87;;;6.93;;
16822;SDS011;8528;49.976;11.858;2023-05-10T08:45:53;7.50;;;6.80;;
16822;SDS011;8528;49.976;11.858;2023-05-10T08:48:22;7.57;;;5.50;;
16822;SDS011;8528;49.976;11.858;2023-05-10T08:50:52;5.83;;;4.97;;
16822;SDS011;8528;49.976;11.858;2023-05-10T08:53:20;6.93;;;6.03;;
16822;SDS011;8528;49.976;11.858;2023-05-10T08:55:50;6.63;;;5.90;;
16822;SDS011;8528;49.976;11.858;2023-05-10T08:58:17;5.57;;;5.07;;
16822;SDS011;8528;49.976;11.858;2023-05-10T09:00:45;7.30;;;6.10;;
16822;SDS011;8528;49.976;11.858;2023-05-10T09:03:14;5.80;;;5.13;;
16822;SDS011;8528;49.976;11.858;2023-05-10T09:05:41;4.63;;;4.23;;
16822;SDS011;8528;49.976;11.858;2023-05-10T09:08:08;4.33;;;3.37;;
16822;SDS011;8528;49.976;11.858;2023-05-10T09:10:36;4.87;;;3.23;;
16822;SDS011;8528;49.976;11.858;2023-05-10T09:13:04;3.23;;;3.00;;
16822;SDS011;8528;49.976;11.858;2023-05-10T09:15:33;2.00;;;1.90;;
16822;SDS011;8528;49.976;11.858;2023-05-10T09:18:00;1.70;;;1.60;;
16822;SDS011;8528;49.976;11.858;2023-05-10T09:20:28;1.53;;;1.43;;
16822;SDS011;8528;49.976;11.858;2023-05-10T09:22:55;1.60;;;1.50;;
16822;SDS011;8528;49.976;11.858;2023-05-10T09:25:22;1.53;;;1.40;;
16822;SDS011;8528;49.976;11.858;2023-05-10T09:27:49;1.20;;;1.10;;
16822;SDS011;8528;49.976;11.858;2023-05-10T09:30:17;1.70;;;1.60;;
16822;SDS011;8528;49.976;11.858;2023-05-10T09:32:49;1.40;;;1.30;;
16822;SDS011;8528;49.976;11.858;2023-05-10T09:35:18;2.07;;;1.60;;
16822;SDS011;8528;49.976;11.858;2023-05-10T09:37:47;1.40;;;1.30;;
16822;SDS011;8528;49.976;11.858;2023-05-10T09:40:19;1.20;;;1.10;;
16822;SDS011;8528;49.976;11.858;2023-05-10T09:42:54;1.10;;;1.10;;
16822;SDS011;8528;49.976;11.858;2023-05-10T09:45:27;2.30;;;1.40;;
16822;SDS011;8528;49.976;11.858;2023-05-10T09:47:55;1.57;;;1.47;;
16822;SDS011;8528;49.976;11.858;2023-05-10T09:50:23;2.07;;;1.40;;
16822;SDS011;8528;49.976;11.858;2023-05-10T09:55:19;1.30;;;1.20;;
16822;SDS011;8528;49.976;11.858;2023-05-10T09:57:48;1.40;;;1.30;;
16822;SDS011;8528;49.976;11.858;2023-05-10T10:00:19;1.40;;;1.30;;
16822;SDS011;8528;49.976;11.858;2023-05-10T10:02:47;1.00;;;1.00;;
16822;SDS011;8528;49.976;11.858;2023-05-10T10:05:20;1.00;;;1.00;;
16822;SDS011;8528;49.976;11.858;2023-05-10T10:07:47;1.10;;;1.00;;
16822;SDS011;8528;49.976;11.858;2023-05-10T10:10:15;1.53;;;1.43;;
16822;SDS011;8528;49.976;11.858;2023-05-10T10:12:42;1.00;;;1.00;;
16822;SDS011;8528;49.976;11.858;2023-05-10T10:15:10;1.53;;;0.97;;
16822;SDS011;8528;49.976;11.858;2023-05-10T10:17:41;1.00;;;1.00;;
16822;SDS011;8528;49.976;11.858;2023-05-10T10:20:09;1.27;;;1.10;;
16822;SDS011;8528;49.976;11.858;2023-05-10T10:22:37;1.27;;;1.17;;
16822;SDS011;8528;49.976;11.858;2023-05-10T10:25:04;1.57;;;1.20;;
16822;SDS011;8528;49.976;11.858;2023-05-10T10:27:49;2.07;;;1.20;;
16822;SDS011;8528;49.976;11.858;2023-05-10T10:36:00;1.67;;;1.30;;
16822;SDS011;8528;49.976;11.858;2023-05-10T10:41:27;1.40;;;1.30;;
16822;SDS011;8528;49.976;11.858;2023-05-10T10:50:03;1.47;;;1.30;;
16822;SDS011;8528;49.976;11.858;2023-05-10T10:52:32;1.70;;;1.20;;
16822;SDS011;8528;49.976;11.858;2023-05-10T10:55:07;1.20;;;1.10;;
16822;SDS011;8528;49.976;11.858;2023-05-10T11:00:19;1.70;;;1.10;;
16822;SDS011;8528;49.976;11.858;2023-05-10T11:03:06;1.30;;;1.20;;
16822;SDS011;8528;49.976;11.858;2023-05-10T11:05:38;5.20;;;1.33;;
16822;SDS011;8528;49.976;11.858;2023-05-10T11:13:31;1.10;;;1.10;;
16822;SDS011;8528;49.976;11.858;2023-05-10T11:18:38;3.00;;;1.20;;
16822;SDS011;8528;49.976;11.858;2023-05-10T11:21:08;1.00;;;1.00;;
16822;SDS011;8528;49.976;11.858;2023-05-10T11:23:54;1.10;;;1.00;;
16822;SDS011;8528;49.976;11.858;2023-05-10T11:26:23;0.93;;;0.83;;
16822;SDS011;8528;49.976;11.858;2023-05-10T11:28:53;2.20;;;1.00;;
16822;SDS011;8528;49.976;11.858;2023-05-10T11:31:24;1.20;;;1.10;;
16822;SDS011;8528;49.976;11.858;2023-05-10T11:33:54;1.00;;;0.90;;
16822;SDS011;8528;49.976;11.858;2023-05-10T11:36:29;1.10;;;1.00;;
16822;SDS011;8528;49.976;11.858;2023-05-10T11:38:59;1.20;;;1.10;;
16822;SDS011;8528;49.976;11.858;2023-05-10T11:41:27;1.00;;;1.00;;
16822;SDS011;8528;49.976;11.858;2023-05-10T11:43:56;1.27;;;1.10;;
16822;SDS011;8528;49.976;11.858;2023-05-10T11:46:24;1.23;;;1.17;;
16822;SDS011;8528;49.976;11.858;2023-05-10T11:48:56;1.27;;;1.17;;
16822;SDS011;8528;49.976;11.858;2023-05-10T11:51:28;1.10;;;1.00;;
16822;SDS011;8528;49.976;11.858;2023-05-10T11:53:55;1.20;;;1.10;;
16822;SDS011;8528;49.976;11.858;2023-05-10T11:56:23;1.70;;;1.40;;
16822;SDS011;8528;49.976;11.858;2023-05-10T11:58:53;1.93;;;1.20;;
16822;SDS011;8528;49.976;11.858;2023-05-10T12:05:09;1.70;;;0.97;;
16822;SDS011;8528;49.976;11.858;2023-05-10T12:07:36;0.97;;;0.90;;
16822;SDS011;8528;49.976;11.858;2023-05-10T12:10:07;0.90;;;0.90;;
16822;SDS011;8528;49.976;11.858;2023-05-10T12:12:38;2.97;;;1.47;;
16822;SDS011;8528;49.976;11.858;2023-05-10T12:15:11;1.40;;;1.30;;
16822;SDS011;8528;49.976;11.858;2023-05-10T12:17:48;1.23;;;1.13;;
16822;SDS011;8528;49.976;11.858;2023-05-10T12:20:17;1.30;;;1.10;;
16822;SDS011;8528;49.976;11.858;2023-05-10T12:22:55;4.90;;;1.70;;
16822;SDS011;8528;49.976;11.858;2023-05-10T12:25:29;0.80;;;0.80;;
16822;SDS011;8528;49.976;11.858;2023-05-10T12:27:57;1.03;;;1.00;;
16822;SDS011;8528;49.976;11.858;2023-05-10T12:30:30;1.10;;;1.00;;
16822;SDS011;8528;49.976;11.858;2023-05-10T12:32:59;1.57;;;1.10;;
16822;SDS011;8528;49.976;11.858;2023-05-10T12:35:48;1.27;;;1.17;;
16822;SDS011;8528;49.976;11.858;2023-05-10T12:38:24;2.67;;;1.20;;
16822;SDS011;8528;49.976;11.858;2023-05-10T12:40:51;2.30;;;1.20;;
16822;SDS011;8528;49.976;11.858;2023-05-10T12:43:18;4.93;;;1.57;;
16822;SDS011;8528;49.976;11.858;2023-05-10T12:45:45;1.30;;;1.20;;
16822;SDS011;8528;49.976;11.858;2023-05-10T12:48:14;1.30;;;1.20;;
16822;SDS011;8528;49.976;11.858;2023-05-10T12:50:41;1.07;;;1.07;;
16822;SDS011;8528;49.976;11.858;2023-05-10T12:53:08;1.83;;;1.30;;
16822;SDS011;8528;49.976;11.858;2023-05-10T12:55:35;1.97;;;1.37;;
16822;SDS011;8528;49.976;11.858;2023-05-10T12:58:02;1.17;;;1.00;;
16822;SDS011;8528;49.976;11.858;2023-05-10T13:00:29;1.20;;;1.10;;
16822;SDS011;8528;49.976;11.858;2023-05-10T13:02:55;2.10;;;1.10;;
16822;SDS011;8528;49.976;11.858;2023-05-10T13:05:22;0.90;;;0.90;;
16822;SDS011;8528;49.976;11.858;2023-05-10T13:07:49;8.00;;;2.00;;
16822;SDS011;8528;49.976;11.858;2023-05-10T13:10:16;8.07;;;7.47;;
16822;SDS011;8528;49.976;11.858;2023-05-10T13:12:43;33.67;;;23.73;;
16822;SDS011;8528;49.976;11.858;2023-05-10T13:15:10;105.50;;;59.90;;
16822;SDS011;8528;49.976;11.858;2023-05-10T13:17:37;60.77;;;45.87;;
16822;SDS011;8528;49.976;11.858;2023-05-10T13:20:05;11.30;;;10.27;;
16822;SDS011;8528;49.976;11.858;2023-05-10T13:22:33;50.87;;;36.50;;
16822;SDS011;8528;49.976;11.858;2023-05-10T13:25:18;94.40;;;51.50;;
16822;SDS011;8528;49.976;11.858;2023-05-10T13:27:45;15.73;;;9.73;;
16822;SDS011;8528;49.976;11.858;2023-05-10T13:30:12;39.50;;;22.10;;
16822;SDS011;8528;49.976;11.858;2023-05-10T13:32:39;68.03;;;36.40;;
16822;SDS011;8528;49.976;11.858;2023-05-10T13:35:06;35.33;;;19.97;;
16822;SDS011;8528;49.976;11.858;2023-05-10T13:37:33;74.67;;;38.23;;
16822;SDS011;8528;49.976;11.858;2023-05-10T13:40:04;32.27;;;17.60;;
16822;SDS011;8528;49.976;11.858;2023-05-10T13:42:31;2.33;;;1.90;;
16822;SDS011;8528;49.976;11.858;2023-05-10T13:45:00;1.30;;;1.20;;
16822;SDS011;8528;49.976;11.858;2023-05-10T13:47:28;2.47;;;1.50;;
16822;SDS011;8528;49.976;11.858;2023-05-10T13:49:54;8.60;;;5.80;;
16822;SDS011;8528;49.976;11.858;2023-05-10T13:52:22;2.33;;;1.80;;
16822;SDS011;8528;49.976;11.858;2023-05-10T13:54:48;1.57;;;1.13;;
16822;SDS011;8528;49.976;11.858;2023-05-10T13:57:15;1.20;;;0.97;;
16822;SDS011;8528;49.976;11.858;2023-05-10T13:59:43;0.90;;;0.90;;
16822;SDS011;8528;49.976;11.858;2023-05-10T14:02:09;1.40;;;1.30;;
16822;SDS011;8528;49.976;11.858;2023-05-10T14:04:39;1.70;;;1.60;;
16822;SDS011;8528;49.976;11.858;2023-05-10T14:07:06;4.30;;;2.00;;
16822;SDS011;8528;49.976;11.858;2023-05-10T14:09:33;2.23;;;1.00;;
16822;SDS011;8528;49.976;11.858;2023-05-10T14:11:59;1.20;;;1.10;;
16822;SDS011;8528;49.976;11.858;2023-05-10T14:14:26;0.87;;;0.87;;
16822;SDS011;8528;49.976;11.858;2023-05-10T14:16:55;1.00;;;1.00;;
16822;SDS011;8528;49.976;11.858;2023-05-10T14:19:22;1.37;;;1.10;;
16822;SDS011;8528;49.976;11.858;2023-05-10T14:21:49;1.20;;;1.10;;
16822;SDS011;8528;49.976;11.858;2023-05-10T14:24:16;1.77;;;1.07;;
16822;SDS011;8528;49.976;11.858;2023-05-10T14:26:43;0.90;;;0.90;;
16822;SDS011;8528;49.976;11.858;2023-05-10T14:29:10;1.00;;;1.00;;
16822;SDS011;8528;49.976;11.858;2023-05-10T14:31:41;1.40;;;1.30;;
16822;SDS011;8528;49.976;11.858;2023-05-10T14:34:09;1.23;;;1.00;;
16822;SDS011;8528;49.976;11.858;2023-05-10T14:36:35;1.00;;;1.00;;
16822;SDS011;8528;49.976;11.858;2023-05-10T14:39:03;1.60;;;1.20;;
16822;SDS011;8528;49.976;11.858;2023-05-10T14:41:31;1.20;;;1.10;;
16822;SDS011;8528;49.976;11.858;2023-05-10T14:43:57;2.03;;;1.17;;
16822;SDS011;8528;49.976;11.858;2023-05-10T14:46:24;1.63;;;1.00;;
16822;SDS011;8528;49.976;11.858;2023-05-10T14:48:51;1.10;;;1.10;;
16822;SDS011;8528;49.976;11.858;2023-05-10T14:51:18;2.03;;;1.37;;
16822;SDS011;8528;49.976;11.858;2023-05-10T14:53:48;1.50;;;1.27;;
16822;SDS011;8528;49.976;11.858;2023-05-10T14:56:16;1.87;;;1.20;;
16822;SDS011;8528;49.976;11.858;2023-05-10T14:58:43;1.40;;;1.30;;
16822;SDS011;8528;49.976;11.858;2023-05-10T15:01:10;1.40;;;1.30;;
16822;SDS011;8528;49.976;11.858;2023-05-10T15:03:37;1.33;;;1.23;;
16822;SDS011;8528;49.976;11.858;2023-05-10T15:06:05;1.33;;;1.23;;
16822;SDS011;8528;49.976;11.858;2023-05-10T15:08:32;1.60;;;1.50;;
16822;SDS011;8528;49.976;11.858;2023-05-10T15:10:58;1.63;;;1.50;;
16822;SDS011;8528;49.976;11.858;2023-05-10T15:13:25;1.50;;;1.40;;
16822;SDS011;8528;49.976;11.858;2023-05-10T15:15:52;2.63;;;1.57;;
16822;SDS011;8528;49.976;11.858;2023-05-10T15:18:19;1.40;;;1.30;;
16822;SDS011;8528;49.976;11.858;2023-05-10T15:20:46;1.77;;;1.67;;
16822;SDS011;8528;49.976;11.858;2023-05-10T15:23:13;1.40;;;1.30;;
16822;SDS011;8528;49.976;11.858;2023-05-10T15:25:40;2.13;;;1.30;;
16822;SDS011;8528;49.976;11.858;2023-05-10T15:28:07;1.53;;;1.30;;
16822;SDS011;8528;49.976;11.858;2023-05-10T15:30:34;2.83;;;1.60;;
16822;SDS011;8528;49.976;11.858;2023-05-10T15:33:01;2.03;;;1.40;;
16822;SDS011;8528;49.976;11.858;2023-05-10T15:35:28;1.40;;;1.30;;
16822;SDS011;8528;49.976;11.858;2023-05-10T15:37:54;1.60;;;1.50;;